createdAt,value
2023-12-01T00:02:21.647Z,-0.25
2023-12-01T00:04:50.117Z,-0.28
2023-12-01T00:07:18.304Z,-0.29
2023-12-01T00:09:46.477Z,-0.26
2023-12-01T00:12:14.899Z,-0.22
2023-12-01T00:14:43.087Z,-0.22
2023-12-01T00:17:11.427Z,-0.19
2023-12-01T00:19:41.691Z,-0.17
2023-12-01T00:22:10.649Z,-0.22
2023-12-01T00:24:38.746Z,-0.22
2023-12-01T00:27:07.125Z,-0.21
2023-12-01T00:29:35.201Z,-0.18
2023-12-01T00:32:03.391Z,-0.23
2023-12-01T00:34:31.923Z,-0.23
2023-12-01T00:37:00.115Z,-0.21
2023-12-01T00:39:28.323Z,-0.19
2023-12-01T00:41:56.749Z,-0.18
2023-12-01T00:44:24.908Z,-0.21
2023-12-01T00:46:53.385Z,-0.17
2023-12-01T00:49:21.865Z,-0.17
2023-12-01T00:51:50.174Z,-0.16
2023-12-01T00:54:18.261Z,-0.18
2023-12-01T00:56:47.330Z,-0.18
2023-12-01T00:59:15.618Z,-0.18
2023-12-01T01:01:43.954Z,-0.16
2023-12-01T01:04:13.316Z,-0.15
2023-12-01T01:06:41.832Z,-0.15
2023-12-01T01:09:10.301Z,-0.15
2023-12-01T01:11:38.648Z,-0.12
2023-12-01T01:14:06.843Z,-0.12
2023-12-01T01:16:35.002Z,-0.11
2023-12-01T01:19:03.455Z,-0.11
2023-12-01T01:21:31.656Z,-0.10
2023-12-01T01:23:59.822Z,-0.12
2023-12-01T01:26:28.235Z,-0.10
2023-12-01T01:28:56.301Z,-0.14
2023-12-01T01:31:24.900Z,-0.11
2023-12-01T01:33:53.429Z,-0.11
2023-12-01T01:36:21.616Z,-0.15
2023-12-01T01:38:50.907Z,-0.13
2023-12-01T01:41:19.321Z,-0.15
2023-12-01T01:43:47.466Z,-0.14
2023-12-01T01:46:15.984Z,-0.13
2023-12-01T01:48:45.036Z,-0.19
2023-12-01T01:51:15.331Z,-0.21
2023-12-01T01:53:43.844Z,-0.26
2023-12-01T01:56:13.756Z,-0.24
2023-12-01T01:58:42.982Z,-0.24
2023-12-01T02:01:11.642Z,-0.28
2023-12-01T02:03:41.884Z,-0.27
2023-12-01T02:06:10.226Z,-0.21
2023-12-01T02:08:38.421Z,-0.18
2023-12-01T02:11:07.161Z,-0.18
2023-12-01T02:13:35.344Z,-0.18
2023-12-01T02:16:03.644Z,-0.16
2023-12-01T02:18:33.135Z,-0.15
2023-12-01T02:21:02.071Z,-0.14
2023-12-01T02:23:30.289Z,-0.14
2023-12-01T02:25:58.911Z,-0.13
2023-12-01T02:28:27.405Z,-0.12
2023-12-01T02:30:57.591Z,-0.12
2023-12-01T02:33:26.546Z,-0.11
2023-12-01T02:35:55.095Z,-0.13
2023-12-01T02:38:23.245Z,-0.13
2023-12-01T02:40:52.157Z,-0.10
2023-12-01T02:43:22.264Z,-0.11
2023-12-01T02:45:51.293Z,-0.10
2023-12-01T02:48:19.806Z,-0.12
2023-12-01T02:50:48.314Z,-0.10
2023-12-01T02:53:17.121Z,-0.10
2023-12-01T02:55:47.434Z,-0.09
2023-12-01T02:58:15.885Z,-0.10
2023-12-01T03:00:44.246Z,-0.23
2023-12-01T03:03:12.811Z,-0.25
2023-12-01T03:05:40.976Z,-0.28
2023-12-01T03:08:09.485Z,-0.35
2023-12-01T03:10:38.771Z,-0.32
2023-12-01T03:13:06.855Z,-0.37
2023-12-01T03:15:35.887Z,-0.28
2023-12-01T03:18:04.862Z,-0.25
2023-12-01T03:20:33.433Z,-0.23
2023-12-01T03:23:01.780Z,-0.26
2023-12-01T03:25:30.144Z,-0.25
2023-12-01T03:27:58.267Z,-0.26
2023-12-01T03:30:26.513Z,-0.23
2023-12-01T03:32:55.399Z,-0.27
2023-12-01T03:35:25.664Z,-0.25
2023-12-01T03:37:58.828Z,-0.29
2023-12-01T03:40:28.320Z,-0.28
2023-12-01T03:42:57.672Z,-0.25
2023-12-01T03:45:25.910Z,-0.24
2023-12-01T03:47:54.084Z,-0.28
2023-12-01T03:50:22.860Z,-0.35
2023-12-01T03:52:52.718Z,-0.30
2023-12-01T03:55:21.171Z,-0.29
2023-12-01T03:57:49.823Z,-0.29
2023-12-01T04:00:20.638Z,-0.41
2023-12-01T04:02:50.750Z,-0.31
2023-12-01T04:05:21.999Z,-0.28
2023-12-01T04:07:55.670Z,-0.28
2023-12-01T04:10:27.648Z,-0.28
2023-12-01T04:12:57.801Z,-0.23
2023-12-01T04:15:27.538Z,-0.23
2023-12-01T04:17:56.385Z,-0.20
2023-12-01T04:20:28.293Z,-0.20
2023-12-01T04:23:10.450Z,-0.20
2023-12-01T04:25:47.778Z,-0.19
2023-12-01T04:28:16.930Z,-0.19
2023-12-01T04:30:45.062Z,-0.25
2023-12-01T04:33:15.077Z,-0.25
2023-12-01T04:35:43.611Z,-0.23
2023-12-01T04:38:11.733Z,-0.25
2023-12-01T04:40:39.883Z,-0.22
2023-12-01T04:43:08.428Z,-0.27
2023-12-01T04:45:39.328Z,-0.28
2023-12-01T04:48:09.629Z,-0.30
2023-12-01T04:50:57.726Z,-0.28
2023-12-01T04:53:25.850Z,-0.29
2023-12-01T04:55:54.290Z,-0.25
2023-12-01T04:58:22.476Z,-0.35
2023-12-01T05:00:50.703Z,-0.31
2023-12-01T05:03:19.402Z,-0.28
2023-12-01T05:05:47.587Z,-0.28
2023-12-01T05:08:16.859Z,-0.25
2023-12-01T05:10:46.256Z,-0.23
2023-12-01T05:13:15.691Z,-0.20
2023-12-01T05:15:44.520Z,-0.18
2023-12-01T05:18:12.786Z,-0.21
2023-12-01T05:20:41.542Z,-0.19
2023-12-01T05:23:10.695Z,-0.19
2023-12-01T05:25:42.349Z,-0.17
2023-12-01T05:28:12.504Z,-0.20
2023-12-01T05:30:43.012Z,-0.20
2023-12-01T05:33:11.632Z,-0.21
2023-12-01T05:35:44.069Z,-0.18
2023-12-01T05:38:12.811Z,-0.21
2023-12-01T05:40:40.881Z,-0.28
2023-12-01T05:43:09.683Z,-0.26
2023-12-01T05:45:39.084Z,-0.23
2023-12-01T05:48:10.999Z,-0.23
2023-12-01T05:50:43.880Z,-0.19
2023-12-01T05:53:14.429Z,-0.27
2023-12-01T05:55:43.904Z,-0.26
2023-12-01T05:58:14.368Z,-0.20
2023-12-01T06:00:43.229Z,-0.33
2023-12-01T06:03:13.338Z,-0.27
2023-12-01T06:05:41.795Z,-0.32
2023-12-01T06:08:10.246Z,-0.31
2023-12-01T06:10:39.358Z,-0.30
2023-12-01T06:13:08.128Z,-0.33
2023-12-01T06:15:36.440Z,-0.38
2023-12-01T06:18:05.197Z,-0.39
2023-12-01T06:20:35.511Z,-0.29
2023-12-01T06:23:08.148Z,-0.30
2023-12-01T06:25:39.388Z,-0.26
2023-12-01T06:28:10.164Z,-0.22
2023-12-01T06:30:39.112Z,-0.18
2023-12-01T06:33:09.543Z,-0.16
2023-12-01T06:35:38.097Z,-0.14
2023-12-01T06:38:07.137Z,-0.14
2023-12-01T06:40:35.750Z,-0.09
2023-12-01T06:43:11.464Z,-0.09
2023-12-01T06:45:43.417Z,-0.11
2023-12-01T06:48:13.025Z,-0.10
2023-12-01T06:50:41.871Z,-0.17
2023-12-01T06:53:11.643Z,-0.17
2023-12-01T06:55:41.178Z,-0.16
2023-12-01T06:58:10.506Z,-0.13
2023-12-01T07:00:40.174Z,-0.14
2023-12-01T07:03:12.137Z,-0.11
2023-12-01T07:05:42.389Z,-0.07
2023-12-01T07:08:14.825Z,-0.08
2023-12-01T07:10:44.875Z,-0.09
2023-12-01T07:13:13.392Z,-0.11
2023-12-01T07:15:41.805Z,-0.10
2023-12-01T07:18:11.330Z,-0.09
2023-12-01T07:20:40.004Z,-0.10
2023-12-01T07:23:08.846Z,-0.10
2023-12-01T07:25:37.916Z,-0.07
2023-12-01T07:28:09.773Z,-0.03
2023-12-01T07:30:41.664Z,-0.05
2023-12-01T07:33:10.774Z,-0.14
2023-12-01T07:35:40.109Z,-0.12
2023-12-01T07:38:08.262Z,-0.08
2023-12-01T07:40:36.970Z,-0.09
2023-12-01T07:43:05.572Z,-0.05
2023-12-01T07:45:35.750Z,-0.04
2023-12-01T07:48:04.346Z,-0.01
2023-12-01T07:50:32.827Z,0.02
2023-12-01T07:53:01.090Z,0.00
2023-12-01T07:55:29.293Z,-0.06
2023-12-01T07:57:57.778Z,-0.08
2023-12-01T08:00:25.954Z,-0.18
2023-12-01T08:02:57.520Z,-0.15
2023-12-01T08:05:26.152Z,-0.12
2023-12-01T08:07:57.258Z,-0.13
2023-12-01T08:10:30.155Z,-0.09
2023-12-01T08:13:00.864Z,-0.09
2023-12-01T08:15:30.886Z,-0.10
2023-12-01T08:18:00.971Z,-0.08
2023-12-01T08:20:30.201Z,-0.08
2023-12-01T08:22:59.190Z,-0.11
2023-12-01T08:25:27.916Z,-0.13
2023-12-01T08:27:56.245Z,-0.21
2023-12-01T08:30:26.712Z,-0.25
2023-12-01T08:32:57.095Z,-0.18
2023-12-01T08:35:26.189Z,-0.09
2023-12-01T08:37:55.119Z,-0.03
2023-12-01T08:40:24.542Z,0.02
2023-12-01T08:42:55.310Z,-0.01
2023-12-01T08:45:23.937Z,-0.06
2023-12-01T08:47:53.341Z,0.02
2023-12-01T08:50:22.413Z,-0.04
2023-12-01T08:52:50.993Z,-0.06
2023-12-01T08:55:19.256Z,-0.04
2023-12-01T08:57:47.564Z,0.02
2023-12-01T09:00:22.142Z,0.02
2023-12-01T09:02:51.820Z,0.04
2023-12-01T09:05:20.772Z,0.08
2023-12-01T09:07:49.512Z,0.07
2023-12-01T09:10:21.469Z,0.09
2023-12-01T09:12:51.349Z,0.06
2023-12-01T09:15:19.637Z,0.05
2023-12-01T09:17:48.110Z,0.07
2023-12-01T09:20:16.581Z,0.07
2023-12-01T09:22:44.762Z,0.07
2023-12-01T09:25:13.009Z,0.05
2023-12-01T09:27:42.921Z,0.07
2023-12-01T09:30:15.361Z,0.09
2023-12-01T09:32:44.990Z,0.09
2023-12-01T09:35:13.319Z,0.10
2023-12-01T09:37:41.429Z,0.12
2023-12-01T09:40:11.455Z,0.14
2023-12-01T09:42:40.857Z,0.17
2023-12-01T09:45:13.923Z,0.20
2023-12-01T09:47:52.592Z,0.14
2023-12-01T09:50:24.113Z,0.13
2023-12-01T09:52:55.170Z,0.15
2023-12-01T09:55:23.728Z,0.15
2023-12-01T09:57:54.228Z,0.23
2023-12-01T10:00:22.625Z,0.22
2023-12-01T10:02:51.771Z,0.25
2023-12-01T10:05:20.100Z,0.29
2023-12-01T10:07:54.078Z,0.32
2023-12-01T10:10:24.917Z,0.34
2023-12-01T10:12:59.541Z,0.36
2023-12-01T10:15:28.544Z,0.34
2023-12-01T10:18:15.054Z,0.32
2023-12-01T10:21:08.590Z,0.31
2023-12-01T10:23:37.806Z,0.30
2023-12-01T10:26:08.688Z,0.33
2023-12-01T10:28:39.595Z,0.31
2023-12-01T10:31:09.020Z,0.34
2023-12-01T10:33:37.380Z,0.37
2023-12-01T10:36:10.063Z,0.40
2023-12-01T10:38:38.656Z,0.36
2023-12-01T10:41:07.166Z,0.33
2023-12-01T10:43:36.382Z,0.34
2023-12-01T10:46:07.122Z,0.31
2023-12-01T10:48:36.512Z,0.36
2023-12-01T10:51:06.933Z,0.34
2023-12-01T10:53:36.532Z,0.31
2023-12-01T10:56:12.865Z,0.32
2023-12-01T10:58:41.016Z,0.38
2023-12-01T11:01:09.988Z,0.38
2023-12-01T11:03:42.266Z,0.36
2023-12-01T11:06:22.319Z,0.40
2023-12-01T11:09:20.656Z,0.43
2023-12-01T11:12:10.177Z,0.43
2023-12-01T11:14:38.815Z,0.43
2023-12-01T11:17:07.887Z,0.45
2023-12-01T11:19:39.523Z,0.44
2023-12-01T11:22:32.048Z,0.47
2023-12-01T11:25:00.479Z,0.49
2023-12-01T11:27:32.774Z,0.52
2023-12-01T11:30:13.092Z,0.54
2023-12-01T11:32:43.121Z,0.56
2023-12-01T11:35:12.961Z,0.56
2023-12-01T11:38:06.800Z,0.53
2023-12-01T11:40:41.325Z,0.58
2023-12-01T11:43:17.363Z,0.60
2023-12-01T11:45:50.440Z,0.60
2023-12-01T11:48:19.246Z,0.64
2023-12-01T11:50:47.816Z,0.65
2023-12-01T11:53:18.638Z,0.67
2023-12-01T11:55:50.434Z,0.65
2023-12-01T11:58:19.779Z,0.62
2023-12-01T12:00:48.314Z,0.62
2023-12-01T12:03:20.745Z,0.64
2023-12-01T12:05:49.641Z,0.68
2023-12-01T12:08:18.062Z,0.72
2023-12-01T12:10:46.185Z,0.71
2023-12-01T12:13:14.363Z,0.74
2023-12-01T12:15:42.825Z,0.74
2023-12-01T12:18:14.869Z,0.74
2023-12-01T12:20:43.821Z,0.76
2023-12-01T12:23:12.684Z,0.77
2023-12-01T12:25:40.957Z,0.74
2023-12-01T12:28:11.054Z,0.74
2023-12-01T12:30:40.736Z,0.72
2023-12-01T12:33:14.480Z,0.74
2023-12-01T12:35:43.222Z,0.72
2023-12-01T12:38:11.395Z,0.73
2023-12-01T12:40:39.591Z,0.74
2023-12-01T12:43:08.324Z,0.75
2023-12-01T12:45:36.624Z,0.74
2023-12-01T12:48:14.064Z,0.75
2023-12-01T12:50:44.148Z,0.73
2023-12-01T12:53:12.772Z,0.70
2023-12-01T12:55:41.105Z,0.72
2023-12-01T12:58:09.574Z,0.73
2023-12-01T13:00:37.953Z,0.67
2023-12-01T13:03:06.227Z,0.70
2023-12-01T13:05:34.809Z,0.72
2023-12-01T13:08:03.691Z,0.74
2023-12-01T13:10:31.923Z,0.76
2023-12-01T13:13:00.343Z,0.76
2023-12-01T13:15:29.429Z,0.76
2023-12-01T13:17:57.797Z,0.77
2023-12-01T13:20:26.538Z,0.78
2023-12-01T13:22:54.788Z,0.76
2023-12-01T13:25:23.357Z,0.78
2023-12-01T13:27:53.437Z,0.77
2023-12-01T13:30:21.982Z,0.76
2023-12-01T13:32:50.359Z,0.76
2023-12-01T13:35:19.166Z,0.75
2023-12-01T13:37:47.662Z,0.78
2023-12-01T13:40:15.936Z,0.77
2023-12-01T13:42:44.474Z,0.71
2023-12-01T13:45:14.216Z,0.72
2023-12-01T13:47:43.161Z,0.73
2023-12-01T13:50:12.176Z,0.75
2023-12-01T13:52:40.501Z,0.66
2023-12-01T13:55:09.078Z,0.68
2023-12-01T13:57:40.384Z,0.71
2023-12-01T14:00:14.214Z,0.71
2023-12-01T14:02:48.460Z,0.73
2023-12-01T14:05:18.528Z,0.75
2023-12-01T14:07:48.844Z,0.75
2023-12-01T14:10:17.062Z,0.76
2023-12-01T14:12:45.447Z,0.71
2023-12-01T14:15:13.980Z,0.73
2023-12-01T14:17:42.454Z,0.76
2023-12-01T14:20:13.297Z,0.76
2023-12-01T14:22:43.045Z,0.76
2023-12-01T14:25:12.116Z,0.77
2023-12-01T14:27:40.219Z,0.74
2023-12-01T14:30:09.291Z,0.77
2023-12-01T14:32:37.798Z,0.73
2023-12-01T14:35:06.207Z,0.77
2023-12-01T14:37:34.884Z,0.72
2023-12-01T14:40:06.277Z,0.74
2023-12-01T14:42:35.797Z,0.77
2023-12-01T14:45:07.258Z,0.76
2023-12-01T14:47:36.130Z,0.77
2023-12-01T14:50:06.025Z,0.76
2023-12-01T14:52:34.893Z,0.76
2023-12-01T14:55:03.697Z,0.77
2023-12-01T14:57:32.578Z,0.77
2023-12-01T15:00:00.853Z,0.78
2023-12-01T15:02:30.229Z,0.77
2023-12-01T15:04:58.577Z,0.78
2023-12-01T15:07:26.787Z,0.78
2023-12-01T15:09:55.304Z,0.77
2023-12-01T15:12:23.543Z,0.74
2023-12-01T15:14:52.045Z,0.72
2023-12-01T15:17:20.566Z,0.75
2023-12-01T15:19:48.820Z,0.76
2023-12-01T15:22:18.788Z,0.75
2023-12-01T15:24:48.234Z,0.71
2023-12-01T15:27:16.502Z,0.64
2023-12-01T15:29:45.682Z,0.65
2023-12-01T15:32:14.350Z,0.66
2023-12-01T15:34:42.783Z,0.64
2023-12-01T15:37:10.952Z,0.63
2023-12-01T15:39:39.922Z,0.67
2023-12-01T15:42:08.134Z,0.68
2023-12-01T15:44:37.438Z,0.68
2023-12-01T15:47:06.163Z,0.71
2023-12-01T15:49:34.464Z,0.74
2023-12-01T15:52:04.874Z,0.77
2023-12-01T15:54:33.916Z,0.76
2023-12-01T15:57:03.391Z,0.76
2023-12-01T15:59:31.599Z,0.76
2023-12-01T16:02:00.092Z,0.74
2023-12-01T16:04:29.374Z,0.73
2023-12-01T16:06:57.455Z,0.73
2023-12-01T16:09:25.697Z,0.76
2023-12-01T16:11:54.351Z,0.75
2023-12-01T16:14:22.805Z,0.71
2023-12-01T16:16:51.559Z,0.74
2023-12-01T16:19:20.064Z,0.71
2023-12-01T16:21:48.252Z,0.71
2023-12-01T16:24:20.375Z,0.74
2023-12-01T16:26:54.069Z,0.72
2023-12-01T16:29:22.731Z,0.75
2023-12-01T16:31:50.838Z,0.77
2023-12-01T16:34:19.324Z,0.80
2023-12-01T16:36:53.519Z,0.72
2023-12-01T16:39:23.257Z,0.69
2023-12-01T16:41:52.403Z,0.71
2023-12-01T16:44:20.774Z,0.74
2023-12-01T16:46:49.341Z,0.74
2023-12-01T16:49:17.676Z,0.73
2023-12-01T16:51:45.911Z,0.67
2023-12-01T16:54:14.557Z,0.67
2023-12-01T16:56:42.729Z,0.70
2023-12-01T16:59:11.008Z,0.71
2023-12-01T17:01:44.004Z,0.65
2023-12-01T17:04:13.337Z,0.67
2023-12-01T17:06:41.808Z,0.68
2023-12-01T17:09:10.076Z,0.67
2023-12-01T17:11:38.143Z,0.70
2023-12-01T17:14:06.617Z,0.62
2023-12-01T17:16:34.825Z,0.67
2023-12-01T17:19:03.111Z,0.65
2023-12-01T17:21:31.557Z,0.66
2023-12-01T17:23:59.759Z,0.64
2023-12-01T17:26:27.989Z,0.61
2023-12-01T17:29:03.626Z,0.66
2023-12-01T17:31:38.695Z,0.65
2023-12-01T17:34:07.801Z,0.68
2023-12-01T17:36:35.929Z,0.61
2023-12-01T17:39:05.236Z,0.57
2023-12-01T17:41:33.894Z,0.62
2023-12-01T17:44:02.256Z,0.65
2023-12-01T17:46:30.847Z,0.68
2023-12-01T17:48:59.617Z,0.63
2023-12-01T17:51:27.948Z,0.68
2023-12-01T17:53:56.507Z,0.55
2023-12-01T17:56:25.235Z,0.75
2023-12-01T17:58:54.957Z,0.58
2023-12-01T18:01:24.349Z,0.67
2023-12-01T18:03:53.903Z,0.62
2023-12-01T18:06:22.463Z,0.52
2023-12-01T18:08:50.630Z,0.59
2023-12-01T18:11:19.206Z,0.60
2023-12-01T18:13:47.391Z,0.70
2023-12-01T18:16:15.706Z,0.51
2023-12-01T18:18:44.465Z,0.61
2023-12-01T18:21:12.925Z,0.53
2023-12-01T18:23:41.211Z,0.59
2023-12-01T18:26:09.727Z,0.60
2023-12-01T18:28:37.899Z,0.62
2023-12-01T18:31:07.372Z,0.64
2023-12-01T18:33:36.065Z,0.67
2023-12-01T18:36:04.702Z,0.67
2023-12-01T18:38:32.931Z,0.74
2023-12-01T18:41:01.353Z,0.71
2023-12-01T18:43:31.612Z,0.71
2023-12-01T18:45:59.926Z,0.65
2023-12-01T18:48:28.819Z,0.77
2023-12-01T18:50:57.234Z,0.72
2023-12-01T18:53:25.573Z,0.76
2023-12-01T18:55:54.175Z,0.66
2023-12-01T18:58:23.771Z,0.53
2023-12-01T19:00:54.568Z,0.57
2023-12-01T19:03:23.169Z,0.63
2023-12-01T19:05:51.515Z,0.64
2023-12-01T19:08:19.675Z,0.68
2023-12-01T19:10:49.194Z,0.70
2023-12-01T19:13:19.596Z,0.73
2023-12-01T19:15:48.852Z,0.83
2023-12-01T19:18:17.565Z,0.79
2023-12-01T19:20:46.091Z,0.81
2023-12-01T19:23:14.559Z,0.86
2023-12-01T19:25:42.697Z,0.87
2023-12-01T19:28:11.364Z,0.90
2023-12-01T19:30:41.791Z,0.87
2023-12-01T19:33:12.382Z,0.87
2023-12-01T19:35:41.021Z,0.88
2023-12-01T19:38:09.532Z,0.88
2023-12-01T19:40:37.966Z,0.87
2023-12-01T19:43:08.725Z,0.86
2023-12-01T19:45:36.830Z,0.86
2023-12-01T19:48:05.526Z,0.82
2023-12-01T19:50:37.125Z,0.86
2023-12-01T19:53:05.399Z,0.83
2023-12-01T19:55:33.899Z,0.76
2023-12-01T19:58:02.273Z,0.72
2023-12-01T20:00:30.594Z,0.75
2023-12-01T20:02:59.765Z,0.77
2023-12-01T20:05:28.061Z,0.79
2023-12-01T20:07:56.220Z,0.76
2023-12-01T20:10:24.774Z,0.76
2023-12-01T20:12:53.064Z,0.73
2023-12-01T20:15:21.507Z,0.69
2023-12-01T20:17:50.758Z,0.70
2023-12-01T20:20:18.944Z,0.72
2023-12-01T20:22:47.140Z,0.72
2023-12-01T20:25:15.594Z,0.74
2023-12-01T20:27:43.685Z,0.73
2023-12-01T20:30:12.148Z,0.74
2023-12-01T20:32:40.798Z,0.75
2023-12-01T20:35:09.205Z,0.77
2023-12-01T20:37:37.476Z,0.81
2023-12-01T20:40:06.653Z,0.83
2023-12-01T20:42:34.824Z,0.84
2023-12-01T20:45:03.238Z,0.88
2023-12-01T20:47:31.746Z,0.89
2023-12-01T20:50:00.378Z,0.89
2023-12-01T20:52:28.549Z,0.89
2023-12-01T20:54:56.946Z,0.91
2023-12-01T20:57:25.202Z,0.94
2023-12-01T20:59:53.373Z,0.90
2023-12-01T21:02:21.841Z,0.94
2023-12-01T21:04:50.148Z,0.93
2023-12-01T21:07:18.351Z,0.93
2023-12-01T21:09:46.981Z,0.93
2023-12-01T21:12:17.337Z,0.94
2023-12-01T21:14:45.765Z,0.93
2023-12-01T21:17:14.463Z,0.89
2023-12-01T21:19:42.637Z,0.88
2023-12-01T21:22:10.787Z,0.87
2023-12-01T21:24:39.283Z,0.82
2023-12-01T21:27:07.537Z,0.79
2023-12-01T21:29:35.704Z,0.80
2023-12-01T21:32:04.571Z,0.80
2023-12-01T21:34:34.294Z,0.78
2023-12-01T21:37:02.535Z,0.76
2023-12-01T21:39:31.745Z,0.76
2023-12-01T21:41:59.913Z,0.77
2023-12-01T21:44:28.084Z,0.76
2023-12-01T21:46:56.617Z,0.75
2023-12-01T21:49:24.816Z,0.77
2023-12-01T21:51:53.401Z,0.77
2023-12-01T21:54:22.015Z,0.80
2023-12-01T21:56:50.145Z,0.79
2023-12-01T21:59:18.341Z,0.82
2023-12-01T22:01:46.826Z,0.82
2023-12-01T22:04:15.250Z,0.81
2023-12-01T22:06:43.424Z,0.83
2023-12-01T22:09:11.596Z,0.84
2023-12-01T22:11:43.766Z,0.86
2023-12-01T22:14:12.363Z,0.84
2023-12-01T22:16:40.847Z,0.85
2023-12-01T22:19:11.387Z,0.86
2023-12-01T22:21:39.853Z,0.83
2023-12-01T22:24:08.737Z,0.83
2023-12-01T22:26:36.835Z,0.80
2023-12-01T22:29:05.016Z,0.84
2023-12-01T22:31:33.450Z,0.86
2023-12-01T22:34:01.525Z,0.85
2023-12-01T22:36:29.733Z,0.87
2023-12-01T22:38:58.802Z,0.84
2023-12-01T22:41:26.944Z,0.84
2023-12-01T22:46:24.523Z,0.87
2023-12-01T22:48:52.581Z,0.87
2023-12-01T22:51:20.824Z,0.85
2023-12-01T22:53:49.341Z,0.84
2023-12-01T22:56:17.508Z,0.83
2023-12-01T22:58:45.640Z,0.86
2023-12-01T23:01:14.433Z,0.86
2023-12-01T23:03:44.940Z,0.85
2023-12-01T23:06:13.778Z,0.87
2023-12-01T23:08:42.015Z,0.89
2023-12-01T23:11:11.182Z,0.88
2023-12-01T23:13:39.707Z,0.89
2023-12-01T23:16:08.704Z,0.86
2023-12-01T23:18:37.024Z,0.80
2023-12-01T23:21:06.565Z,0.80
2023-12-01T23:23:34.904Z,0.82
2023-12-01T23:26:03.030Z,0.84
2023-12-01T23:28:31.512Z,0.83
2023-12-01T23:30:59.655Z,0.78
2023-12-01T23:33:27.814Z,0.75
2023-12-01T23:35:56.388Z,0.77
2023-12-01T23:38:24.665Z,0.82
2023-12-01T23:40:52.759Z,0.82
2023-12-01T23:43:21.227Z,0.87
2023-12-01T23:45:49.286Z,0.92
2023-12-01T23:48:17.579Z,0.94
2023-12-01T23:50:46.138Z,0.96
2023-12-01T23:53:14.345Z,0.97
2023-12-01T23:55:42.676Z,0.98
2023-12-01T23:58:11.080Z,1.00
